Inspiration — C6FM5 — position and weather

sailwx.info

Track history (hours):
 
Tides and Currents Weather Stations Pressure Air Temp Water Temp Dewpoint Dewpoint Depression Visibility Wind Speed Wind Dir Waves Ship Positions

Inspiration

Operator: Carnival Cruise Lines

Last reported at 2018-Jul-22 03:00 UTC. Time now 2018-Jul-22 03:19 UTC.
Position N 31°46' W 117°14'.

Type: Ship. MMSI: 309484000.

Date/timePositionNaut miles runAvg speedWind from/ knotsBaromVisibWave heightAir tempDewpointWater temp
2018-Jul-22 03:00N 31°46' W 117°14'4 8.3
2018-Jul-22 02:30N 31°49' W 117°16'4 8.1
2018-Jul-22 02:00N 31°53' W 117°19'4 7.9
2018-Jul-22 01:30N 31°56' W 117°21'4 7.9
2018-Jul-22 01:00N 31°59' W 117°24'4 7.6
2018-Jul-22 00:30N 32°02' W 117°26'3 6.3
2018-Jul-22 00:00N 32°04' W 117°23'3 6.5
2018-Jul-21 23:30N 32°02' W 117°21'3 6.8
2018-Jul-21 23:00N 31°58' W 117°19'4 7.0
2018-Jul-21 22:30N 31°55' W 117°18'4 7.5
2018-Jul-21 22:00N 31°52' W 117°16'4 7.3
2018-Jul-21 21:30N 31°49' W 117°14'3 6.5
2018-Jul-21 21:00N 31°45' W 117°14'4 7.1
2018-Jul-21 20:30N 31°44' W 117°18'4 7.5
2018-Jul-21 20:00N 31°43' W 117°22'4 7.4
2018-Jul-21 19:30N 31°42' W 117°26'4 7.2
2018-Jul-21 19:00N 31°41' W 117°30'4 7.4
2018-Jul-21 18:30N 31°40' W 117°35'4 7.4
2018-Jul-21 18:00N 31°39' W 117°39'4 7.2
2018-Jul-21 17:30N 31°38' W 117°43'4 7.4
2018-Jul-21 17:00N 31°38' W 117°47'4 7.3
2018-Jul-21 16:30N 31°39' W 117°51'4 7.3
2018-Jul-21 16:00N 31°41' W 117°55'4 7.5
2018-Jul-21 15:30N 31°43' W 117°58'4 7.5
2018-Jul-21 15:00N 31°46' W 118°02'4 7.2
2018-Jul-21 14:30N 31°48' W 118°05'8 7.6
2018-Jul-21 13:30N 31°56' W 118°06'5 9.2
2018-Jul-21 13:00N 31°60' W 118°04'5 9.4
2018-Jul-21 12:30N 32°04' W 118°02'5 9.2
2018-Jul-21 12:00N 32°09' W 118°00'5 9.1
2018-Jul-21 11:30N 32°13' W 117°58'5 9.4
2018-Jul-21 11:00N 32°17' W 117°56'5 9.5
2018-Jul-21 10:30N 32°22' W 117°54'5 9.6
2018-Jul-21 10:00N 32°26' W 117°52'5 9.7
2018-Jul-21 09:30N 32°31' W 117°50'5 9.6
2018-Jul-21 09:00N 32°35' W 117°50'5 9.7
2018-Jul-21 08:30N 32°40' W 117°50'5 9.7
2018-Jul-21 08:00N 32°45' W 117°50'5 9.8
2018-Jul-21 07:30N 32°50' W 117°53'5 9.7
2018-Jul-21 07:00N 32°54' W 117°55'5 9.9
2018-Jul-21 06:30N 32°59' W 117°57'510.1
2018-Jul-21 06:00N 33°03' W 117°59'510.2
2018-Jul-21 05:30N 33°08' W 118°01'510.1
2018-Jul-21 05:00N 33°13' W 118°03'510.2
2018-Jul-21 04:30N 33°18' W 118°06'510.1
2018-Jul-21 04:00N 33°22' W 118°08'510.1
2018-Jul-21 03:30N 33°27' W 118°10'510.1
2018-Jul-21 03:00N 33°32' W 118°12'510.0
2018-Jul-21 02:30N 33°37' W 118°13'5 9.5
2018-Jul-21 02:00N 33°41' W 118°11'4 7.1
2018-Jul-21 01:30N 33°45' W 118°11'0 0.1
2018-Jul-21 01:00N 33°45' W 118°11'0 0.0
2018-Jul-21 00:30N 33°45' W 118°11'0 0.0
2018-Jul-21 00:00N 33°45' W 118°11'0 0.0
2018-Jul-20 23:29N 33°45' W 118°11'0 0.0
2018-Jul-20 22:59N 33°45' W 118°11'0 0.0
2018-Jul-20 22:29N 33°45' W 118°11'0 0.0
2018-Jul-20 21:59N 33°45' W 118°11'0 0.0
2018-Jul-20 21:29N 33°45' W 118°11'0 0.0
2018-Jul-20 20:58N 33°45' W 118°11'0 0.0
2018-Jul-20 20:28N 33°45' W 118°11'0 0.0
2018-Jul-20 19:58N 33°45' W 118°11'0 0.0
2018-Jul-20 19:28N 33°45' W 118°11'0 0.0
2018-Jul-20 19:00N 33°45' W 118°11'0 0.0
2018-Jul-20 18:30N 33°45' W 118°11'0 0.0
2018-Jul-20 18:00N 33°45' W 118°11'0 0.0
2018-Jul-20 17:30N 33°45' W 118°11'0 0.0
2018-Jul-20 17:00N 33°45' W 118°11'0 0.0
2018-Jul-20 16:29N 33°45' W 118°11'0 0.0
2018-Jul-20 15:59N 33°45' W 118°11'0 0.0
2018-Jul-20 15:29N 33°45' W 118°11'0 0.0
2018-Jul-20 14:59N 33°45' W 118°11'0 0.0
2018-Jul-20 14:28N 33°45' W 118°11'0 0.0
2018-Jul-20 13:58N 33°45' W 118°11'0 0.0
2018-Jul-20 13:28N 33°45' W 118°11'0 0.0
2018-Jul-20 12:59N 33°45' W 118°11'0 0.3
2018-Jul-20 12:30N 33°45' W 118°11'1 2.0
2018-Jul-20 12:00N 33°44' W 118°11'5 9.3
2018-Jul-20 11:30N 33°39' W 118°10'4 7.4
2018-Jul-20 11:00N 33°36' W 118°10'4 7.5
2018-Jul-20 10:30N 33°32' W 118°08'4 7.8
2018-Jul-20 10:00N 33°29' W 118°07'4 7.8
2018-Jul-20 09:30N 33°25' W 118°05'4 7.8
2018-Jul-20 09:00N 33°21' W 118°03'4 7.4
2018-Jul-20 08:30N 33°18' W 118°02'4 7.3
2018-Jul-20 08:00N 33°14' W 118°00'4 7.9
2018-Jul-20 07:30N 33°11' W 117°59'4 7.5
2018-Jul-20 07:00N 33°07' W 117°57'4 7.5
2018-Jul-20 06:30N 33°04' W 117°56'4 7.6
2018-Jul-20 06:00N 32°60' W 117°54'4 7.6
2018-Jul-20 05:30N 32°56' W 117°53'4 7.6
2018-Jul-20 05:00N 32°53' W 117°51'4 7.6
2018-Jul-20 04:30N 32°49' W 117°50'4 7.6
2018-Jul-20 04:00N 32°46' W 117°48'4 7.9
2018-Jul-20 03:30N 32°42' W 117°46'4 7.7
2018-Jul-20 03:00N 32°38' W 117°45'4 7.5
2018-Jul-20 02:30N 32°35' W 117°43'4 7.5
2018-Jul-20 02:00N 32°31' W 117°42'4 7.5
2018-Jul-20 01:30N 32°28' W 117°41'4 7.7
2018-Jul-20 01:00N 32°24' W 117°39'4 7.8
2018-Jul-20 00:30N 32°20' W 117°38'4 7.5
2018-Jul-20 00:00N 32°17' W 117°36'4 7.6
2018-Jul-19 23:30N 32°14' W 117°33'4 7.7
2018-Jul-19 23:00N 32°11' W 117°30'4 7.8
2018-Jul-19 22:30N 32°08' W 117°26'4 7.8
2018-Jul-19 22:00N 32°06' W 117°23'4 7.8
2018-Jul-19 21:30N 32°03' W 117°20'4 7.8
2018-Jul-19 21:00N 31°60' W 117°17'4 7.4
2018-Jul-19 20:30N 31°57' W 117°14'4 6.8
2018-Jul-19 19:57N 31°54' W 117°13'3 7.3
2018-Jul-19 19:30N 31°51' W 117°15'5 7.9
2018-Jul-19 18:49N 31°51' W 117°22'4 7.8
2018-Jul-19 18:17N 31°50' W 117°26'3 7.6
2018-Jul-19 17:56N 31°50' W 117°30'3 7.9
2018-Jul-19 17:30N 31°49' W 117°33'5 8.3
2018-Jul-19 16:58N 31°49' W 117°39'4 9.2
2018-Jul-19 16:29N 31°48' W 117°44'4 9.2
2018-Jul-19 16:00N 31°48' W 117°49'5 9.3
2018-Jul-19 15:30N 31°47' W 117°54'5 9.6
2018-Jul-19 15:00N 31°47' W 118°00'5 9.0
2018-Jul-19 14:30N 31°46' W 118°05'8 7.6
2018-Jul-19 13:30N 31°39' W 118°03'4 8.2
2018-Jul-19 13:00N 31°35' W 118°01'4 8.1
2018-Jul-19 12:30N 31°32' W 117°58'4 8.1
2018-Jul-19 12:00N 31°28' W 117°55'4 8.6
2018-Jul-19 11:30N 31°25' W 117°52'4 8.1
2018-Jul-19 11:00N 31°23' W 117°48'4 7.9
2018-Jul-19 10:30N 31°25' W 117°45'4 8.5
2018-Jul-19 10:00N 31°29' W 117°47'5 9.2
2018-Jul-19 09:30N 31°33' W 117°50'5 9.3
2018-Jul-19 09:00N 31°37' W 117°53'5 9.5
2018-Jul-19 08:30N 31°41' W 117°56'4 8.7
2018-Jul-19 08:00N 31°45' W 117°54'5 9.7
2018-Jul-19 07:30N 31°45' W 117°48'5 9.8
2018-Jul-19 07:00N 31°46' W 117°42'5 9.9
2018-Jul-19 06:30N 31°46' W 117°36'510.0
2018-Jul-19 06:00N 31°47' W 117°31'510.2
2018-Jul-19 05:30N 31°47' W 117°25'510.1
2018-Jul-19 05:00N 31°48' W 117°19'510.3
2018-Jul-19 04:30N 31°48' W 117°13'510.1
2018-Jul-19 04:00N 31°49' W 117°07'510.1
2018-Jul-19 03:30N 31°49' W 117°01'510.1
2018-Jul-19 02:58N 31°50' W 116°55'6 9.8
2018-Jul-19 02:20N 31°50' W 116°47'410.1
2018-Jul-19 01:58N 31°50' W 116°43'10 0.7
2018-Jul-18 12:00N 31°54' W 116°54'218.4 320 / 101018.310.8 19.017.518.0
2018-Jul-18 11:52N 31°56' W 116°56'3 8.4
2018-Jul-18 11:30N 31°57' W 116°59'9 8.7
2018-Jul-18 10:31N 32°00' W 117°08'510.2
2018-Jul-18 10:00N 32°02' W 117°14'510.1
2018-Jul-18 09:31N 32°04' W 117°20'510.2
2018-Jul-18 09:01N 32°06' W 117°25'510.1
2018-Jul-18 08:30N 32°08' W 117°31'5 9.4
2018-Jul-18 08:00N 32°12' W 117°34'5 9.8
2018-Jul-18 07:30N 32°16' W 117°37'5 9.5
2018-Jul-18 07:01N 32°20' W 117°40'5 9.6
2018-Jul-18 06:30N 32°24' W 117°42'5 9.7
2018-Jul-18 06:00N 32°29' W 117°45'5 9.7
2018-Jul-18 05:30N 32°33' W 117°47'5 9.7
2018-Jul-18 05:00N 32°37' W 117°50'510.0
2018-Jul-18 04:30N 32°42' W 117°53'5 9.9
2018-Jul-18 04:00N 32°46' W 117°55'5 9.8
2018-Jul-18 03:31N 32°51' W 117°58'510.1
2018-Jul-18 03:00N 32°55' W 118°01'510.5
2018-Jul-18 02:30N 32°60' W 118°03'510.5
2018-Jul-18 02:00N 33°05' W 118°06'510.6
2018-Jul-18 01:31N 33°09' W 118°09'510.5
2018-Jul-18 01:00N 33°14' W 118°12'510.0
2018-Jul-18 00:31N 33°18' W 118°15'4 8.4
2018-Jul-18 00:00N 33°21' W 118°19'0 0.5
2018-Jul-17 23:29N 33°21' W 118°19'0 0.0
2018-Jul-17 22:50N 33°21' W 118°19'0 0.1
2018-Jul-17 22:29N 33°21' W 118°19'0 0.0
2018-Jul-17 21:59N 33°21' W 118°19'0 0.1
2018-Jul-17 21:25N 33°21' W 118°19'0 0.0
2018-Jul-17 20:58N 33°21' W 118°19'0 0.0
2018-Jul-17 20:16N 33°21' W 118°19'0 0.0
2018-Jul-17 19:58N 33°21' W 118°19'0 0.0
2018-Jul-17 19:15N 33°21' W 118°19'0 0.0
2018-Jul-17 19:00N 33°21' W 118°19'0 0.0
2018-Jul-17 18:27N 33°21' W 118°19'0 0.0
2018-Jul-17 17:57N 33°21' W 118°19'0 0.0
2018-Jul-17 17:27N 33°21' W 118°19'0 0.0
2018-Jul-17 16:57N 33°21' W 118°19'0 0.1
2018-Jul-17 16:29N 33°21' W 118°19'0 0.1
2018-Jul-17 15:56N 33°21' W 118°19'0 0.0
2018-Jul-17 15:26N 33°21' W 118°19'0 0.0
2018-Jul-17 14:59N 33°21' W 118°19'0 0.0
2018-Jul-17 14:22N 33°21' W 118°19'0 0.0
2018-Jul-17 14:00N 33°21' W 118°19'3 5.8
2018-Jul-17 13:30N 33°19' W 118°17'5 9.0
2018-Jul-17 13:00N 33°14' W 118°15'4 7.8
2018-Jul-17 12:30N 33°11' W 118°14'4 8.4
2018-Jul-17 12:00N 33°07' W 118°13'9579.9
2018-Jul-17 12:00N 33°00' W 118°06'510.2 280 / 101017.227.0 19.017.518.0
2018-Jul-17 11:30N 33°03' W 118°11'4 8.6
2018-Jul-17 11:00N 33°00' W 118°07'4 8.3
2018-Jul-17 10:30N 32°57' W 118°04'4 8.6
2018-Jul-17 10:00N 32°53' W 118°02'4 8.7
2018-Jul-17 09:30N 32°49' W 118°00'4 7.6
2018-Jul-17 09:00N 32°47' W 117°57'4 7.7
2018-Jul-17 08:30N 32°50' W 117°54'4 8.0
2018-Jul-17 08:00N 32°54' W 117°54'4 7.8
2018-Jul-17 07:30N 32°57' W 117°56'4 8.0
2018-Jul-17 07:00N 33°01' W 117°58'4 7.7
2018-Jul-17 06:30N 33°05' W 117°59'4 7.7
2018-Jul-17 06:00N 33°08' W 118°01'4 8.7
2018-Jul-17 05:30N 33°12' W 118°03'4 8.8
2018-Jul-17 05:00N 33°16' W 118°05'4 9.0
2018-Jul-17 04:30N 33°21' W 118°07'5 9.0
2018-Jul-17 04:00N 33°25' W 118°09'4 8.9
2018-Jul-17 03:30N 33°29' W 118°10'5 9.6
2018-Jul-17 03:00N 33°34' W 118°12'5 9.7
2018-Jul-17 02:30N 33°38' W 118°12'4 8.5
2018-Jul-17 02:00N 33°42' W 118°11'3 5.1
2018-Jul-17 01:30N 33°45' W 118°11'0 0.0
2018-Jul-17 00:56N 33°45' W 118°11'0 0.0
2018-Jul-17 00:28N 33°45' W 118°11'0 0.0
2018-Jul-16 23:28N 33°45' W 118°11'0 0.0
2018-Jul-16 22:58N 33°45' W 118°11'0 0.0
2018-Jul-16 22:25N 33°45' W 118°11'0 0.0
2018-Jul-16 22:00N 33°45' W 118°11'0 0.0
2018-Jul-16 21:30N 33°45' W 118°11'0 0.0
2018-Jul-16 21:00N 33°45' W 118°11'0 0.0
2018-Jul-16 20:30N 33°45' W 118°11'0 0.0
2018-Jul-16 19:59N 33°45' W 118°11'0 0.0
2018-Jul-16 19:29N 33°45' W 118°11'0 0.0
2018-Jul-16 18:59N 33°45' W 118°11'0 0.0
2018-Jul-16 18:29N 33°45' W 118°11'0 0.0
2018-Jul-16 17:59N 33°45' W 118°11'0 0.0
2018-Jul-16 17:28N 33°45' W 118°11'0 0.0
2018-Jul-16 16:55N 33°45' W 118°11'0 0.0
2018-Jul-16 16:28N 33°45' W 118°11'0 0.0
2018-Jul-16 15:58N 33°45' W 118°11'0 0.0
2018-Jul-16 15:27N 33°45' W 118°11'0 0.0
2018-Jul-16 15:00N 33°45' W 118°11'0 0.0
2018-Jul-16 14:30N 33°45' W 118°11'0 0.0
2018-Jul-16 14:00N 33°45' W 118°11'0 0.0
2018-Jul-16 13:30N 33°45' W 118°11'0 0.0
2018-Jul-16 12:56N 33°45' W 118°11'0 0.3
2018-Jul-16 12:30N 33°45' W 118°11'1 2.7
2018-Jul-16 12:00N 33°44' W 118°11'4 8.9
2018-Jul-16 11:30N 33°39' W 118°10'5 9.1
2018-Jul-16 11:00N 33°35' W 118°09'5 9.9
2018-Jul-16 10:31N 33°30' W 118°07'510.0
2018-Jul-16 10:01N 33°25' W 118°05'815.7
2018-Jul-16 09:30N 33°18' W 118°03'815.8
2018-Jul-16 09:01N 33°11' W 117°59'815.5
2018-Jul-16 08:30N 33°03' W 117°56'815.4
2018-Jul-16 08:00N 32°56' W 117°53'816.0
2018-Jul-16 07:30N 32°49' W 117°49'815.3
2018-Jul-16 07:00N 32°42' W 117°45'715.0
2018-Jul-16 06:31N 32°35' W 117°43'815.3
2018-Jul-16 06:00N 32°28' W 117°39'815.2
2018-Jul-16 05:30N 32°21' W 117°35'714.9
2018-Jul-16 05:00N 32°15' W 117°30'714.6
2018-Jul-16 04:30N 32°09' W 117°24'714.6
2018-Jul-16 04:00N 32°05' W 117°17'714.7
2018-Jul-16 03:30N 32°01' W 117°10'714.8
2018-Jul-16 03:00N 31°58' W 117°02'714.4
2018-Jul-16 02:30N 31°55' W 116°54'714.2
2018-Jul-16 01:59N 31°52' W 116°46'7 0.6
2018-Jul-15 13:50N 31°50' W 116°39'4 7.7
2018-Jul-15 13:18N 31°50' W 116°44'4 7.9
2018-Jul-15 12:48N 31°50' W 116°48'2 7.5
2018-Jul-15 12:30N 31°50' W 116°51'4 8.1
2018-Jul-15 12:01N 31°50' W 116°55'2121.0
2018-Jul-15 12:00N 31°48' W 116°54'510.9 330 / 101018.310.8 20.016.917.0
2018-Jul-15 11:30N 31°48' W 117°00'4 8.3
2018-Jul-15 11:01N 31°47' W 117°05'4 7.9
2018-Jul-15 10:30N 31°47' W 117°10'4 8.2
2018-Jul-15 10:01N 31°47' W 117°14'4 7.6
2018-Jul-15 09:30N 31°47' W 117°19'4 7.8
2018-Jul-15 08:59N 31°51' W 117°21'4 7.7
2018-Jul-15 08:30N 31°54' W 117°23'4 7.7
2018-Jul-15 08:00N 31°57' W 117°26'4 7.4
2018-Jul-15 07:30N 32°01' W 117°27'4 7.4
2018-Jul-15 07:00N 32°04' W 117°28'3 7.0
2018-Jul-15 06:30N 32°06' W 117°24'4 7.2
2018-Jul-15 06:00N 32°05' W 117°21'4 7.2
2018-Jul-15 05:30N 32°02' W 117°18'4 7.3
2018-Jul-15 05:00N 31°58' W 117°17'4 7.5
2018-Jul-15 04:30N 31°55' W 117°15'4 7.6
2018-Jul-15 04:00N 31°51' W 117°13'4 7.4
2018-Jul-15 03:30N 31°48' W 117°12'4 7.3
2018-Jul-15 03:00N 31°44' W 117°10'3 7.0
2018-Jul-15 02:30N 31°41' W 117°09'4 7.0
2018-Jul-15 01:53N 31°37' W 117°07'3 6.9
2018-Jul-15 01:30N 31°35' W 117°06'11 5.4
2018-Jul-14 23:30N 31°24' W 117°05'4 7.8
2018-Jul-14 23:00N 31°27' W 117°08'4 7.9
2018-Jul-14 22:27N 31°31' W 117°09'6 7.9
2018-Jul-14 21:43N 31°37' W 117°12'2 7.9
2018-Jul-14 21:31N 31°38' W 117°12'4 7.8
2018-Jul-14 20:56N 31°43' W 117°14'3 7.2
2018-Jul-14 20:28N 31°44' W 117°18'4 7.9
2018-Jul-14 19:59N 31°43' W 117°22'4 7.9
2018-Jul-14 19:30N 31°42' W 117°26'4 7.7
2018-Jul-14 18:57N 31°40' W 117°31'4 8.9
2018-Jul-14 18:31N 31°39' W 117°35'4 8.9
2018-Jul-14 18:00N 31°38' W 117°40'4 8.8
2018-Jul-14 17:30N 31°37' W 117°45'4 7.2
2018-Jul-14 17:00N 31°38' W 117°49'3 6.6
2018-Jul-14 16:30N 31°40' W 117°53'3 6.6
2018-Jul-14 16:01N 31°42' W 117°56'3 7.0
2018-Jul-14 15:30N 31°44' W 117°59'4 7.1
2018-Jul-14 15:00N 31°47' W 118°02'7 6.8
2018-Jul-14 14:00N 31°52' W 118°06'4 7.7
2018-Jul-14 13:31N 31°56' W 118°06'510.0
2018-Jul-14 13:00N 32°01' W 118°04'510.2
2018-Jul-14 12:30N 32°06' W 118°02'510.1
2018-Jul-14 12:00N 32°11' W 117°59'5439.2
2018-Jul-14 12:00N 32°12' W 117°54'4 8.7 320 / 201018.310.8 19.017.517.0
2018-Jul-14 11:30N 32°15' W 117°57'510.3
2018-Jul-14 11:01N 32°20' W 117°55'510.4
2018-Jul-14 10:31N 32°25' W 117°53'510.4
2018-Jul-14 10:01N 32°30' W 117°51'4 8.4
2018-Jul-14 09:30N 32°34' W 117°49'5 9.6
2018-Jul-14 09:00N 32°38' W 117°50'5 9.9
2018-Jul-14 08:30N 32°43' W 117°51'510.0
2018-Jul-14 08:00N 32°48' W 117°52'5 9.8
2018-Jul-14 07:30N 32°53' W 117°54'5 9.8
2018-Jul-14 07:00N 32°57' W 117°56'5 9.8
2018-Jul-14 06:30N 33°02' W 117°57'5 9.5
2018-Jul-14 06:00N 33°06' W 118°00'5 9.6
2018-Jul-14 05:30N 33°11' W 118°02'5 9.6
2018-Jul-14 05:00N 33°15' W 118°04'5 9.6
2018-Jul-14 04:30N 33°20' W 118°06'5 9.9
2018-Jul-14 04:01N 33°24' W 118°08'510.0
2018-Jul-14 03:31N 33°29' W 118°10'5 9.9
2018-Jul-14 03:00N 33°34' W 118°12'5 9.6
2018-Jul-14 02:30N 33°38' W 118°12'4 8.9
2018-Jul-14 02:00N 33°43' W 118°11'2 4.5
2018-Jul-14 01:30N 33°45' W 118°11'0 0.1
2018-Jul-14 00:58N 33°45' W 118°11'0 0.0
2018-Jul-14 00:28N 33°45' W 118°11'0 0.0
2018-Jul-13 23:58N 33°45' W 118°11'0 0.0
2018-Jul-13 23:28N 33°45' W 118°11'0 0.0
2018-Jul-13 23:00N 33°45' W 118°11'0 0.0
2018-Jul-13 22:30N 33°45' W 118°11'0 0.0
2018-Jul-13 22:00N 33°45' W 118°11'0 0.0
2018-Jul-13 21:30N 33°45' W 118°11'0 0.0
2018-Jul-13 21:00N 33°45' W 118°11'0 0.0
2018-Jul-13 20:29N 33°45' W 118°11'0 0.0
2018-Jul-13 19:56N 33°45' W 118°11'0 0.0
2018-Jul-13 19:29N 33°45' W 118°11'0 0.0
2018-Jul-13 18:59N 33°45' W 118°11'0 0.0
2018-Jul-13 18:29N 33°45' W 118°11'0 0.0
2018-Jul-13 17:55N 33°45' W 118°11'0 0.0
2018-Jul-13 17:28N 33°45' W 118°11'0 0.0
2018-Jul-13 16:52N 33°45' W 118°11'0 0.0
2018-Jul-13 16:28N 33°45' W 118°11'0 0.0
2018-Jul-13 16:00N 33°45' W 118°11'0 0.0
2018-Jul-13 15:30N 33°45' W 118°11'0 0.0
2018-Jul-13 15:00N 33°45' W 118°11'0 0.0
2018-Jul-13 14:30N 33°45' W 118°11'0 0.0
2018-Jul-13 13:29N 33°45' W 118°11'0 0.0
2018-Jul-13 13:00N 33°45' W 118°11'0 0.6
2018-Jul-13 12:30N 33°45' W 118°11'2 3.7
2018-Jul-13 12:00N 33°43' W 118°11'4 7.6
2018-Jul-13 11:30N 33°39' W 118°10'4 7.4
2018-Jul-13 11:00N 33°36' W 118°10'4 7.5
2018-Jul-13 10:30N 33°32' W 118°08'4 7.3
2018-Jul-13 10:00N 33°29' W 118°07'4 7.3
2018-Jul-13 09:30N 33°25' W 118°05'4 7.4
2018-Jul-13 09:00N 33°22' W 118°04'3 6.5
2018-Jul-13 08:30N 33°19' W 118°02'3 6.8
2018-Jul-13 08:00N 33°16' W 118°00'4 7.4
2018-Jul-13 07:30N 33°13' W 117°58'4 7.5
2018-Jul-13 07:00N 33°09' W 117°56'4 8.0
2018-Jul-13 06:30N 33°05' W 117°55'4 7.9
2018-Jul-13 06:00N 33°01' W 117°55'4 8.0
2018-Jul-13 05:30N 32°58' W 117°53'4 8.0
2018-Jul-13 05:00N 32°54' W 117°51'4 8.0
2018-Jul-13 04:30N 32°50' W 117°49'4 8.3
2018-Jul-13 04:00N 32°46' W 117°48'5 9.5
2018-Jul-13 03:30N 32°42' W 117°46'5 9.4
2018-Jul-13 03:00N 32°37' W 117°44'5 9.1
2018-Jul-13 02:30N 32°33' W 117°43'5 9.2
2018-Jul-13 02:00N 32°29' W 117°41'4 7.9
2018-Jul-13 01:30N 32°25' W 117°40'4 7.6
2018-Jul-13 01:00N 32°21' W 117°38'4 7.5
2018-Jul-13 00:30N 32°18' W 117°36'4 7.7
2018-Jul-13 00:00N 32°15' W 117°33'4 7.4
2018-Jul-12 23:30N 32°12' W 117°30'4 7.3
2018-Jul-12 23:00N 32°09' W 117°27'4 7.0
2018-Jul-12 22:30N 32°07' W 117°25'4 7.3
2018-Jul-12 21:58N 32°04' W 117°22'3 7.5
2018-Jul-12 21:30N 32°01' W 117°19'4 7.4
2018-Jul-12 21:00N 31°59' W 117°16'4 7.1
2018-Jul-12 20:30N 31°56' W 117°13'5 6.6
2018-Jul-12 19:47N 31°51' W 117°15'2 8.0
2018-Jul-12 19:30N 31°51' W 117°18'4 8.1
2018-Jul-12 19:00N 31°51' W 117°22'4 8.2
2018-Jul-12 18:30N 31°51' W 117°27'4 8.3
2018-Jul-12 18:00N 31°51' W 117°32'4 8.5
2018-Jul-12 17:30N 31°50' W 117°37'4 8.2
2018-Jul-12 17:00N 31°50' W 117°42'4 7.9
2018-Jul-12 16:30N 31°50' W 117°47'4 7.9
2018-Jul-12 15:59N 31°50' W 117°51'4 7.9
2018-Jul-12 15:30N 31°49' W 117°56'4 8.3
2018-Jul-12 15:00N 31°45' W 117°58'4 8.6
2018-Jul-12 14:30N 31°41' W 118°00'4 8.5
2018-Jul-12 14:00N 31°37' W 118°02'4 7.9
2018-Jul-12 13:27N 31°34' W 117°59'4 8.4
2018-Jul-12 13:00N 31°31' W 117°57'4 8.4
2018-Jul-12 12:30N 31°27' W 117°54'4 8.2
2018-Jul-12 12:00N 31°24' W 117°52'4 7.6
2018-Jul-12 11:30N 31°23' W 117°47'4 7.3
2018-Jul-12 11:00N 31°26' W 117°45'4 8.2
2018-Jul-12 10:30N 31°29' W 117°47'4 8.5
2018-Jul-12 10:00N 31°33' W 117°50'4 8.7
2018-Jul-12 09:30N 31°36' W 117°53'4 8.8
2018-Jul-12 09:00N 31°40' W 117°56'4 8.1
2018-Jul-12 08:29N 31°44' W 117°55'4 9.3
2018-Jul-12 08:00N 31°45' W 117°50'5 9.5
2018-Jul-12 07:30N 31°45' W 117°44'5 9.5
2018-Jul-12 07:00N 31°46' W 117°39'5 9.4
2018-Jul-12 06:30N 31°46' W 117°33'5 9.1
2018-Jul-12 06:00N 31°47' W 117°28'5 9.2
2018-Jul-12 05:30N 31°47' W 117°23'5 9.2
2018-Jul-12 05:00N 31°48' W 117°17'5 9.1
2018-Jul-12 04:30N 31°48' W 117°12'5 9.0
2018-Jul-12 04:00N 31°49' W 117°07'4 9.0
2018-Jul-12 03:30N 31°49' W 117°01'  
Track history (hours):
 
Tides and Currents Weather Stations Pressure Air Temp Water Temp Dewpoint Dewpoint Depression Visibility Wind Speed Wind Dir Waves Ship Positions

Inspiration

Operator: Carnival Cruise Lines

Last reported at 2018-Jul-22 03:00 UTC. Time now 2018-Jul-22 03:19 UTC.
Position N 31°46' W 117°14'.

Type: Ship. MMSI: 309484000.

Date/timePositionNaut miles runAvg speedWind from/ knotsBaromVisibWave heightAir tempDewpointWater temp
2018-Jul-22 03:00N 31°46' W 117°14'4 8.3
2018-Jul-22 02:30N 31°49' W 117°16'4 8.1
2018-Jul-22 02:00N 31°53' W 117°19'4 7.9
2018-Jul-22 01:30N 31°56' W 117°21'4 7.9
2018-Jul-22 01:00N 31°59' W 117°24'4 7.6
2018-Jul-22 00:30N 32°02' W 117°26'3 6.3
2018-Jul-22 00:00N 32°04' W 117°23'3 6.5
2018-Jul-21 23:30N 32°02' W 117°21'3 6.8
2018-Jul-21 23:00N 31°58' W 117°19'4 7.0
2018-Jul-21 22:30N 31°55' W 117°18'4 7.5
2018-Jul-21 22:00N 31°52' W 117°16'4 7.3
2018-Jul-21 21:30N 31°49' W 117°14'3 6.5
2018-Jul-21 21:00N 31°45' W 117°14'4 7.1
2018-Jul-21 20:30N 31°44' W 117°18'4 7.5
2018-Jul-21 20:00N 31°43' W 117°22'4 7.4
2018-Jul-21 19:30N 31°42' W 117°26'4 7.2
2018-Jul-21 19:00N 31°41' W 117°30'4 7.4
2018-Jul-21 18:30N 31°40' W 117°35'4 7.4
2018-Jul-21 18:00N 31°39' W 117°39'4 7.2
2018-Jul-21 17:30N 31°38' W 117°43'4 7.4
2018-Jul-21 17:00N 31°38' W 117°47'4 7.3
2018-Jul-21 16:30N 31°39' W 117°51'4 7.3
2018-Jul-21 16:00N 31°41' W 117°55'4 7.5
2018-Jul-21 15:30N 31°43' W 117°58'4 7.5
2018-Jul-21 15:00N 31°46' W 118°02'4 7.2
2018-Jul-21 14:30N 31°48' W 118°05'8 7.6
2018-Jul-21 13:30N 31°56' W 118°06'5 9.2
2018-Jul-21 13:00N 31°60' W 118°04'5 9.4
2018-Jul-21 12:30N 32°04' W 118°02'5 9.2
2018-Jul-21 12:00N 32°09' W 118°00'5 9.1
2018-Jul-21 11:30N 32°13' W 117°58'5 9.4
2018-Jul-21 11:00N 32°17' W 117°56'5 9.5
2018-Jul-21 10:30N 32°22' W 117°54'5 9.6
2018-Jul-21 10:00N 32°26' W 117°52'5 9.7
2018-Jul-21 09:30N 32°31' W 117°50'5 9.6
2018-Jul-21 09:00N 32°35' W 117°50'5 9.7
2018-Jul-21 08:30N 32°40' W 117°50'5 9.7
2018-Jul-21 08:00N 32°45' W 117°50'5 9.8
2018-Jul-21 07:30N 32°50' W 117°53'5 9.7
2018-Jul-21 07:00N 32°54' W 117°55'5 9.9
2018-Jul-21 06:30N 32°59' W 117°57'510.1
2018-Jul-21 06:00N 33°03' W 117°59'510.2
2018-Jul-21 05:30N 33°08' W 118°01'510.1
2018-Jul-21 05:00N 33°13' W 118°03'510.2
2018-Jul-21 04:30N 33°18' W 118°06'510.1
2018-Jul-21 04:00N 33°22' W 118°08'510.1
2018-Jul-21 03:30N 33°27' W 118°10'510.1
2018-Jul-21 03:00N 33°32' W 118°12'510.0
2018-Jul-21 02:30N 33°37' W 118°13'5 9.5
2018-Jul-21 02:00N 33°41' W 118°11'4 7.1
2018-Jul-21 01:30N 33°45' W 118°11'0 0.1
2018-Jul-21 01:00N 33°45' W 118°11'0 0.0
2018-Jul-21 00:30N 33°45' W 118°11'0 0.0
2018-Jul-21 00:00N 33°45' W 118°11'0 0.0
2018-Jul-20 23:29N 33°45' W 118°11'0 0.0
2018-Jul-20 22:59N 33°45' W 118°11'0 0.0
2018-Jul-20 22:29N 33°45' W 118°11'0 0.0
2018-Jul-20 21:59N 33°45' W 118°11'0 0.0
2018-Jul-20 21:29N 33°45' W 118°11'0 0.0
2018-Jul-20 20:58N 33°45' W 118°11'0 0.0
2018-Jul-20 20:28N 33°45' W 118°11'0 0.0
2018-Jul-20 19:58N 33°45' W 118°11'0 0.0
2018-Jul-20 19:28N 33°45' W 118°11'0 0.0
2018-Jul-20 19:00N 33°45' W 118°11'0 0.0
2018-Jul-20 18:30N 33°45' W 118°11'0 0.0
2018-Jul-20 18:00N 33°45' W 118°11'0 0.0
2018-Jul-20 17:30N 33°45' W 118°11'0 0.0
2018-Jul-20 17:00N 33°45' W 118°11'0 0.0
2018-Jul-20 16:29N 33°45' W 118°11'0 0.0
2018-Jul-20 15:59N 33°45' W 118°11'0 0.0
2018-Jul-20 15:29N 33°45' W 118°11'0 0.0
2018-Jul-20 14:59N 33°45' W 118°11'0 0.0
2018-Jul-20 14:28N 33°45' W 118°11'0 0.0
2018-Jul-20 13:58N 33°45' W 118°11'0 0.0
2018-Jul-20 13:28N 33°45' W 118°11'0 0.0
2018-Jul-20 12:59N 33°45' W 118°11'0 0.3
2018-Jul-20 12:30N 33°45' W 118°11'1 2.0
2018-Jul-20 12:00N 33°44' W 118°11'5 9.3
2018-Jul-20 11:30N 33°39' W 118°10'4 7.4
2018-Jul-20 11:00N 33°36' W 118°10'4 7.5
2018-Jul-20 10:30N 33°32' W 118°08'4 7.8
2018-Jul-20 10:00N 33°29' W 118°07'4 7.8
2018-Jul-20 09:30N 33°25' W 118°05'4 7.8
2018-Jul-20 09:00N 33°21' W 118°03'4 7.4
2018-Jul-20 08:30N 33°18' W 118°02'4 7.3
2018-Jul-20 08:00N 33°14' W 118°00'4 7.9
2018-Jul-20 07:30N 33°11' W 117°59'4 7.5
2018-Jul-20 07:00N 33°07' W 117°57'4 7.5
2018-Jul-20 06:30N 33°04' W 117°56'4 7.6
2018-Jul-20 06:00N 32°60' W 117°54'4 7.6
2018-Jul-20 05:30N 32°56' W 117°53'4 7.6
2018-Jul-20 05:00N 32°53' W 117°51'4 7.6
2018-Jul-20 04:30N 32°49' W 117°50'4 7.6
2018-Jul-20 04:00N 32°46' W 117°48'4 7.9
2018-Jul-20 03:30N 32°42' W 117°46'4 7.7
2018-Jul-20 03:00N 32°38' W 117°45'4 7.5
2018-Jul-20 02:30N 32°35' W 117°43'4 7.5
2018-Jul-20 02:00N 32°31' W 117°42'4 7.5
2018-Jul-20 01:30N 32°28' W 117°41'4 7.7
2018-Jul-20 01:00N 32°24' W 117°39'4 7.8
2018-Jul-20 00:30N 32°20' W 117°38'4 7.5
2018-Jul-20 00:00N 32°17' W 117°36'4 7.6
2018-Jul-19 23:30N 32°14' W 117°33'4 7.7
2018-Jul-19 23:00N 32°11' W 117°30'4 7.8
2018-Jul-19 22:30N 32°08' W 117°26'4 7.8
2018-Jul-19 22:00N 32°06' W 117°23'4 7.8
2018-Jul-19 21:30N 32°03' W 117°20'4 7.8
2018-Jul-19 21:00N 31°60' W 117°17'4 7.4
2018-Jul-19 20:30N 31°57' W 117°14'4 6.8
2018-Jul-19 19:57N 31°54' W 117°13'3 7.3
2018-Jul-19 19:30N 31°51' W 117°15'5 7.9
2018-Jul-19 18:49N 31°51' W 117°22'4 7.8
2018-Jul-19 18:17N 31°50' W 117°26'3 7.6
2018-Jul-19 17:56N 31°50' W 117°30'3 7.9
2018-Jul-19 17:30N 31°49' W 117°33'5 8.3
2018-Jul-19 16:58N 31°49' W 117°39'4 9.2
2018-Jul-19 16:29N 31°48' W 117°44'4 9.2
2018-Jul-19 16:00N 31°48' W 117°49'5 9.3
2018-Jul-19 15:30N 31°47' W 117°54'5 9.6
2018-Jul-19 15:00N 31°47' W 118°00'5 9.0
2018-Jul-19 14:30N 31°46' W 118°05'8 7.6
2018-Jul-19 13:30N 31°39' W 118°03'4 8.2
2018-Jul-19 13:00N 31°35' W 118°01'4 8.1
2018-Jul-19 12:30N 31°32' W 117°58'4 8.1
2018-Jul-19 12:00N 31°28' W 117°55'4 8.6
2018-Jul-19 11:30N 31°25' W 117°52'4 8.1
2018-Jul-19 11:00N 31°23' W 117°48'4 7.9
2018-Jul-19 10:30N 31°25' W 117°45'4 8.5
2018-Jul-19 10:00N 31°29' W 117°47'5 9.2
2018-Jul-19 09:30N 31°33' W 117°50'5 9.3
2018-Jul-19 09:00N 31°37' W 117°53'5 9.5
2018-Jul-19 08:30N 31°41' W 117°56'4 8.7
2018-Jul-19 08:00N 31°45' W 117°54'5 9.7
2018-Jul-19 07:30N 31°45' W 117°48'5 9.8
2018-Jul-19 07:00N 31°46' W 117°42'5 9.9
2018-Jul-19 06:30N 31°46' W 117°36'510.0
2018-Jul-19 06:00N 31°47' W 117°31'510.2
2018-Jul-19 05:30N 31°47' W 117°25'510.1
2018-Jul-19 05:00N 31°48' W 117°19'510.3
2018-Jul-19 04:30N 31°48' W 117°13'510.1
2018-Jul-19 04:00N 31°49' W 117°07'510.1
2018-Jul-19 03:30N 31°49' W 117°01'510.1
2018-Jul-19 02:58N 31°50' W 116°55'6 9.8
2018-Jul-19 02:20N 31°50' W 116°47'410.1
2018-Jul-19 01:58N 31°50' W 116°43'10 0.7
2018-Jul-18 12:00N 31°54' W 116°54'218.4 320 / 101018.310.8 19.017.518.0
2018-Jul-18 11:52N 31°56' W 116°56'3 8.4
2018-Jul-18 11:30N 31°57' W 116°59'9 8.7
2018-Jul-18 10:31N 32°00' W 117°08'510.2
2018-Jul-18 10:00N 32°02' W 117°14'510.1
2018-Jul-18 09:31N 32°04' W 117°20'510.2
2018-Jul-18 09:01N 32°06' W 117°25'510.1
2018-Jul-18 08:30N 32°08' W 117°31'5 9.4
2018-Jul-18 08:00N 32°12' W 117°34'5 9.8
2018-Jul-18 07:30N 32°16' W 117°37'5 9.5
2018-Jul-18 07:01N 32°20' W 117°40'5 9.6
2018-Jul-18 06:30N 32°24' W 117°42'5 9.7
2018-Jul-18 06:00N 32°29' W 117°45'5 9.7
2018-Jul-18 05:30N 32°33' W 117°47'5 9.7
2018-Jul-18 05:00N 32°37' W 117°50'510.0
2018-Jul-18 04:30N 32°42' W 117°53'5 9.9
2018-Jul-18 04:00N 32°46' W 117°55'5 9.8
2018-Jul-18 03:31N 32°51' W 117°58'510.1
2018-Jul-18 03:00N 32°55' W 118°01'510.5
2018-Jul-18 02:30N 32°60' W 118°03'510.5
2018-Jul-18 02:00N 33°05' W 118°06'510.6
2018-Jul-18 01:31N 33°09' W 118°09'510.5
2018-Jul-18 01:00N 33°14' W 118°12'510.0
2018-Jul-18 00:31N 33°18' W 118°15'4 8.4
2018-Jul-18 00:00N 33°21' W 118°19'0 0.5
2018-Jul-17 23:29N 33°21' W 118°19'0 0.0
2018-Jul-17 22:50N 33°21' W 118°19'0 0.1
2018-Jul-17 22:29N 33°21' W 118°19'0 0.0
2018-Jul-17 21:59N 33°21' W 118°19'0 0.1
2018-Jul-17 21:25N 33°21' W 118°19'0 0.0
2018-Jul-17 20:58N 33°21' W 118°19'0 0.0
2018-Jul-17 20:16N 33°21' W 118°19'0 0.0
2018-Jul-17 19:58N 33°21' W 118°19'0 0.0
2018-Jul-17 19:15N 33°21' W 118°19'0 0.0
2018-Jul-17 19:00N 33°21' W 118°19'0 0.0
2018-Jul-17 18:27N 33°21' W 118°19'0 0.0
2018-Jul-17 17:57N 33°21' W 118°19'0 0.0
2018-Jul-17 17:27N 33°21' W 118°19'0 0.0
2018-Jul-17 16:57N 33°21' W 118°19'0 0.1
2018-Jul-17 16:29N 33°21' W 118°19'0 0.1
2018-Jul-17 15:56N 33°21' W 118°19'0 0.0
2018-Jul-17 15:26N 33°21' W 118°19'0 0.0
2018-Jul-17 14:59N 33°21' W 118°19'0 0.0
2018-Jul-17 14:22N 33°21' W 118°19'0 0.0
2018-Jul-17 14:00N 33°21' W 118°19'3 5.8
2018-Jul-17 13:30N 33°19' W 118°17'5 9.0
2018-Jul-17 13:00N 33°14' W 118°15'4 7.8
2018-Jul-17 12:30N 33°11' W 118°14'4 8.4
2018-Jul-17 12:00N 33°07' W 118°13'9579.9
2018-Jul-17 12:00N 33°00' W 118°06'510.2 280 / 101017.227.0 19.017.518.0
2018-Jul-17 11:30N 33°03' W 118°11'4 8.6
2018-Jul-17 11:00N 33°00' W 118°07'4 8.3
2018-Jul-17 10:30N 32°57' W 118°04'4 8.6
2018-Jul-17 10:00N 32°53' W 118°02'4 8.7
2018-Jul-17 09:30N 32°49' W 118°00'4 7.6
2018-Jul-17 09:00N 32°47' W 117°57'4 7.7
2018-Jul-17 08:30N 32°50' W 117°54'4 8.0
2018-Jul-17 08:00N 32°54' W 117°54'4 7.8
2018-Jul-17 07:30N 32°57' W 117°56'4 8.0
2018-Jul-17 07:00N 33°01' W 117°58'4 7.7
2018-Jul-17 06:30N 33°05' W 117°59'4 7.7
2018-Jul-17 06:00N 33°08' W 118°01'4 8.7
2018-Jul-17 05:30N 33°12' W 118°03'4 8.8
2018-Jul-17 05:00N 33°16' W 118°05'4 9.0
2018-Jul-17 04:30N 33°21' W 118°07'5 9.0
2018-Jul-17 04:00N 33°25' W 118°09'4 8.9
2018-Jul-17 03:30N 33°29' W 118°10'5 9.6
2018-Jul-17 03:00N 33°34' W 118°12'5 9.7
2018-Jul-17 02:30N 33°38' W 118°12'4 8.5
2018-Jul-17 02:00N 33°42' W 118°11'3 5.1
2018-Jul-17 01:30N 33°45' W 118°11'0 0.0
2018-Jul-17 00:56N 33°45' W 118°11'0 0.0
2018-Jul-17 00:28N 33°45' W 118°11'0 0.0
2018-Jul-16 23:28N 33°45' W 118°11'0 0.0
2018-Jul-16 22:58N 33°45' W 118°11'0 0.0
2018-Jul-16 22:25N 33°45' W 118°11'0 0.0
2018-Jul-16 22:00N 33°45' W 118°11'0 0.0
2018-Jul-16 21:30N 33°45' W 118°11'0 0.0
2018-Jul-16 21:00N 33°45' W 118°11'0 0.0
2018-Jul-16 20:30N 33°45' W 118°11'0 0.0
2018-Jul-16 19:59N 33°45' W 118°11'0 0.0
2018-Jul-16 19:29N 33°45' W 118°11'0 0.0
2018-Jul-16 18:59N 33°45' W 118°11'0 0.0
2018-Jul-16 18:29N 33°45' W 118°11'0 0.0
2018-Jul-16 17:59N 33°45' W 118°11'0 0.0
2018-Jul-16 17:28N 33°45' W 118°11'0 0.0
2018-Jul-16 16:55N 33°45' W 118°11'0 0.0
2018-Jul-16 16:28N 33°45' W 118°11'0 0.0
2018-Jul-16 15:58N 33°45' W 118°11'0 0.0
2018-Jul-16 15:27N 33°45' W 118°11'0 0.0
2018-Jul-16 15:00N 33°45' W 118°11'0 0.0
2018-Jul-16 14:30N 33°45' W 118°11'0 0.0
2018-Jul-16 14:00N 33°45' W 118°11'0 0.0
2018-Jul-16 13:30N 33°45' W 118°11'0 0.0
2018-Jul-16 12:56N 33°45' W 118°11'0 0.3
2018-Jul-16 12:30N 33°45' W 118°11'1 2.7
2018-Jul-16 12:00N 33°44' W 118°11'4 8.9
2018-Jul-16 11:30N 33°39' W 118°10'5 9.1
2018-Jul-16 11:00N 33°35' W 118°09'5 9.9
2018-Jul-16 10:31N 33°30' W 118°07'510.0
2018-Jul-16 10:01N 33°25' W 118°05'815.7
2018-Jul-16 09:30N 33°18' W 118°03'815.8
2018-Jul-16 09:01N 33°11' W 117°59'815.5
2018-Jul-16 08:30N 33°03' W 117°56'815.4
2018-Jul-16 08:00N 32°56' W 117°53'816.0
2018-Jul-16 07:30N 32°49' W 117°49'815.3
2018-Jul-16 07:00N 32°42' W 117°45'715.0
2018-Jul-16 06:31N 32°35' W 117°43'815.3
2018-Jul-16 06:00N 32°28' W 117°39'815.2
2018-Jul-16 05:30N 32°21' W 117°35'714.9
2018-Jul-16 05:00N 32°15' W 117°30'714.6
2018-Jul-16 04:30N 32°09' W 117°24'714.6
2018-Jul-16 04:00N 32°05' W 117°17'714.7
2018-Jul-16 03:30N 32°01' W 117°10'714.8
2018-Jul-16 03:00N 31°58' W 117°02'714.4
2018-Jul-16 02:30N 31°55' W 116°54'714.2
2018-Jul-16 01:59N 31°52' W 116°46'7 0.6
2018-Jul-15 13:50N 31°50' W 116°39'4 7.7
2018-Jul-15 13:18N 31°50' W 116°44'4 7.9
2018-Jul-15 12:48N 31°50' W 116°48'2 7.5
2018-Jul-15 12:30N 31°50' W 116°51'4 8.1
2018-Jul-15 12:01N 31°50' W 116°55'2121.0
2018-Jul-15 12:00N 31°48' W 116°54'510.9 330 / 101018.310.8 20.016.917.0
2018-Jul-15 11:30N 31°48' W 117°00'4 8.3
2018-Jul-15 11:01N 31°47' W 117°05'4 7.9
2018-Jul-15 10:30N 31°47' W 117°10'4 8.2
2018-Jul-15 10:01N 31°47' W 117°14'4 7.6
2018-Jul-15 09:30N 31°47' W 117°19'4 7.8
2018-Jul-15 08:59N 31°51' W 117°21'4 7.7
2018-Jul-15 08:30N 31°54' W 117°23'4 7.7
2018-Jul-15 08:00N 31°57' W 117°26'4 7.4
2018-Jul-15 07:30N 32°01' W 117°27'4 7.4
2018-Jul-15 07:00N 32°04' W 117°28'3 7.0
2018-Jul-15 06:30N 32°06' W 117°24'4 7.2
2018-Jul-15 06:00N 32°05' W 117°21'4 7.2
2018-Jul-15 05:30N 32°02' W 117°18'4 7.3
2018-Jul-15 05:00N 31°58' W 117°17'4 7.5
2018-Jul-15 04:30N 31°55' W 117°15'4 7.6
2018-Jul-15 04:00N 31°51' W 117°13'4 7.4
2018-Jul-15 03:30N 31°48' W 117°12'4 7.3
2018-Jul-15 03:00N 31°44' W 117°10'3 7.0
2018-Jul-15 02:30N 31°41' W 117°09'4 7.0
2018-Jul-15 01:53N 31°37' W 117°07'3 6.9
2018-Jul-15 01:30N 31°35' W 117°06'11 5.4
2018-Jul-14 23:30N 31°24' W 117°05'4 7.8
2018-Jul-14 23:00N 31°27' W 117°08'4 7.9
2018-Jul-14 22:27N 31°31' W 117°09'6 7.9
2018-Jul-14 21:43N 31°37' W 117°12'2 7.9
2018-Jul-14 21:31N 31°38' W 117°12'4 7.8
2018-Jul-14 20:56N 31°43' W 117°14'3 7.2
2018-Jul-14 20:28N 31°44' W 117°18'4 7.9
2018-Jul-14 19:59N 31°43' W 117°22'4 7.9
2018-Jul-14 19:30N 31°42' W 117°26'4 7.7
2018-Jul-14 18:57N 31°40' W 117°31'4 8.9
2018-Jul-14 18:31N 31°39' W 117°35'4 8.9
2018-Jul-14 18:00N 31°38' W 117°40'4 8.8
2018-Jul-14 17:30N 31°37' W 117°45'4 7.2
2018-Jul-14 17:00N 31°38' W 117°49'3 6.6
2018-Jul-14 16:30N 31°40' W 117°53'3 6.6
2018-Jul-14 16:01N 31°42' W 117°56'3 7.0
2018-Jul-14 15:30N 31°44' W 117°59'4 7.1
2018-Jul-14 15:00N 31°47' W 118°02'7 6.8
2018-Jul-14 14:00N 31°52' W 118°06'4 7.7
2018-Jul-14 13:31N 31°56' W 118°06'510.0
2018-Jul-14 13:00N 32°01' W 118°04'510.2
2018-Jul-14 12:30N 32°06' W 118°02'510.1
2018-Jul-14 12:00N 32°11' W 117°59'5439.2
2018-Jul-14 12:00N 32°12' W 117°54'4 8.7 320 / 201018.310.8 19.017.517.0
2018-Jul-14 11:30N 32°15' W 117°57'510.3
2018-Jul-14 11:01N 32°20' W 117°55'510.4
2018-Jul-14 10:31N 32°25' W 117°53'510.4
2018-Jul-14 10:01N 32°30' W 117°51'4 8.4
2018-Jul-14 09:30N 32°34' W 117°49'5 9.6
2018-Jul-14 09:00N 32°38' W 117°50'5 9.9
2018-Jul-14 08:30N 32°43' W 117°51'510.0
2018-Jul-14 08:00N 32°48' W 117°52'5 9.8
2018-Jul-14 07:30N 32°53' W 117°54'5 9.8
2018-Jul-14 07:00N 32°57' W 117°56'5 9.8
2018-Jul-14 06:30N 33°02' W 117°57'5 9.5
2018-Jul-14 06:00N 33°06' W 118°00'5 9.6
2018-Jul-14 05:30N 33°11' W 118°02'5 9.6
2018-Jul-14 05:00N 33°15' W 118°04'5 9.6
2018-Jul-14 04:30N 33°20' W 118°06'5 9.9
2018-Jul-14 04:01N 33°24' W 118°08'510.0
2018-Jul-14 03:31N 33°29' W 118°10'5 9.9
2018-Jul-14 03:00N 33°34' W 118°12'5 9.6
2018-Jul-14 02:30N 33°38' W 118°12'4 8.9
2018-Jul-14 02:00N 33°43' W 118°11'2 4.5
2018-Jul-14 01:30N 33°45' W 118°11'0 0.1
2018-Jul-14 00:58N 33°45' W 118°11'0 0.0
2018-Jul-14 00:28N 33°45' W 118°11'0 0.0
2018-Jul-13 23:58N 33°45' W 118°11'0 0.0
2018-Jul-13 23:28N 33°45' W 118°11'0 0.0
2018-Jul-13 23:00N 33°45' W 118°11'0 0.0
2018-Jul-13 22:30N 33°45' W 118°11'0 0.0
2018-Jul-13 22:00N 33°45' W 118°11'0 0.0
2018-Jul-13 21:30N 33°45' W 118°11'0 0.0
2018-Jul-13 21:00N 33°45' W 118°11'0 0.0
2018-Jul-13 20:29N 33°45' W 118°11'0 0.0
2018-Jul-13 19:56N 33°45' W 118°11'0 0.0
2018-Jul-13 19:29N 33°45' W 118°11'0 0.0
2018-Jul-13 18:59N 33°45' W 118°11'0 0.0
2018-Jul-13 18:29N 33°45' W 118°11'0 0.0
2018-Jul-13 17:55N 33°45' W 118°11'0 0.0
2018-Jul-13 17:28N 33°45' W 118°11'0 0.0
2018-Jul-13 16:52N 33°45' W 118°11'0 0.0
2018-Jul-13 16:28N 33°45' W 118°11'0 0.0
2018-Jul-13 16:00N 33°45' W 118°11'0 0.0
2018-Jul-13 15:30N 33°45' W 118°11'0 0.0
2018-Jul-13 15:00N 33°45' W 118°11'0 0.0
2018-Jul-13 14:30N 33°45' W 118°11'0 0.0
2018-Jul-13 13:29N 33°45' W 118°11'0 0.0
2018-Jul-13 13:00N 33°45' W 118°11'0 0.6
2018-Jul-13 12:30N 33°45' W 118°11'2 3.7
2018-Jul-13 12:00N 33°43' W 118°11'4 7.6
2018-Jul-13 11:30N 33°39' W 118°10'4 7.4
2018-Jul-13 11:00N 33°36' W 118°10'4 7.5
2018-Jul-13 10:30N 33°32' W 118°08'4 7.3
2018-Jul-13 10:00N 33°29' W 118°07'4 7.3
2018-Jul-13 09:30N 33°25' W 118°05'4 7.4
2018-Jul-13 09:00N 33°22' W 118°04'3 6.5
2018-Jul-13 08:30N 33°19' W 118°02'3 6.8
2018-Jul-13 08:00N 33°16' W 118°00'4 7.4
2018-Jul-13 07:30N 33°13' W 117°58'4 7.5
2018-Jul-13 07:00N 33°09' W 117°56'4 8.0
2018-Jul-13 06:30N 33°05' W 117°55'4 7.9
2018-Jul-13 06:00N 33°01' W 117°55'4 8.0
2018-Jul-13 05:30N 32°58' W 117°53'4 8.0
2018-Jul-13 05:00N 32°54' W 117°51'4 8.0
2018-Jul-13 04:30N 32°50' W 117°49'4 8.3
2018-Jul-13 04:00N 32°46' W 117°48'5 9.5
2018-Jul-13 03:30N 32°42' W 117°46'5 9.4
2018-Jul-13 03:00N 32°37' W 117°44'5 9.1
2018-Jul-13 02:30N 32°33' W 117°43'5 9.2
2018-Jul-13 02:00N 32°29' W 117°41'4 7.9
2018-Jul-13 01:30N 32°25' W 117°40'4 7.6
2018-Jul-13 01:00N 32°21' W 117°38'4 7.5
2018-Jul-13 00:30N 32°18' W 117°36'4 7.7
2018-Jul-13 00:00N 32°15' W 117°33'4 7.4
2018-Jul-12 23:30N 32°12' W 117°30'4 7.3
2018-Jul-12 23:00N 32°09' W 117°27'4 7.0
2018-Jul-12 22:30N 32°07' W 117°25'4 7.3
2018-Jul-12 21:58N 32°04' W 117°22'3 7.5
2018-Jul-12 21:30N 32°01' W 117°19'4 7.4
2018-Jul-12 21:00N 31°59' W 117°16'4 7.1
2018-Jul-12 20:30N 31°56' W 117°13'5 6.6
2018-Jul-12 19:47N 31°51' W 117°15'2 8.0
2018-Jul-12 19:30N 31°51' W 117°18'4 8.1
2018-Jul-12 19:00N 31°51' W 117°22'4 8.2
2018-Jul-12 18:30N 31°51' W 117°27'4 8.3
2018-Jul-12 18:00N 31°51' W 117°32'4 8.5
2018-Jul-12 17:30N 31°50' W 117°37'4 8.2
2018-Jul-12 17:00N 31°50' W 117°42'4 7.9
2018-Jul-12 16:30N 31°50' W 117°47'4 7.9
2018-Jul-12 15:59N 31°50' W 117°51'4 7.9
2018-Jul-12 15:30N 31°49' W 117°56'4 8.3
2018-Jul-12 15:00N 31°45' W 117°58'4 8.6
2018-Jul-12 14:30N 31°41' W 118°00'4 8.5
2018-Jul-12 14:00N 31°37' W 118°02'4 7.9
2018-Jul-12 13:27N 31°34' W 117°59'4 8.4
2018-Jul-12 13:00N 31°31' W 117°57'4 8.4
2018-Jul-12 12:30N 31°27' W 117°54'4 8.2
2018-Jul-12 12:00N 31°24' W 117°52'4 7.6
2018-Jul-12 11:30N 31°23' W 117°47'4 7.3
2018-Jul-12 11:00N 31°26' W 117°45'4 8.2
2018-Jul-12 10:30N 31°29' W 117°47'4 8.5
2018-Jul-12 10:00N 31°33' W 117°50'4 8.7
2018-Jul-12 09:30N 31°36' W 117°53'4 8.8
2018-Jul-12 09:00N 31°40' W 117°56'4 8.1
2018-Jul-12 08:29N 31°44' W 117°55'4 9.3
2018-Jul-12 08:00N 31°45' W 117°50'5 9.5
2018-Jul-12 07:30N 31°45' W 117°44'5 9.5
2018-Jul-12 07:00N 31°46' W 117°39'5 9.4
2018-Jul-12 06:30N 31°46' W 117°33'5 9.1
2018-Jul-12 06:00N 31°47' W 117°28'5 9.2
2018-Jul-12 05:30N 31°47' W 117°23'5 9.2
2018-Jul-12 05:00N 31°48' W 117°17'5 9.1
2018-Jul-12 04:30N 31°48' W 117°12'5 9.0
2018-Jul-12 04:00N 31°49' W 117°07'4 9.0
2018-Jul-12 03:30N 31°49' W 117°01'  

Dump ship's entire track history